Time;durP1;ratioP1;P1;durP2;ratioP2;P2;SDS_P1;SDS_P2;PMS_P1;PMS_P2;Temp;Humidity;BMP_temperature;BMP_pressure;BME280_temperature;BME280_humidity;BME280_pressure;Samples;Min_cycle;Max_cycle;Signal;HPM_P1;HPM_P2
2022/04/21 00:00:04;;;;;;;11.07;7.00;;;7.90;99.90;;;;;;4979461;28;20096;-80
2022/04/21 00:02:30;;;;;;;11.67;6.87;;;7.90;99.90;;;;;;4973174;28;20093;-81
2022/04/21 00:04:56;;;;;;;9.00;6.83;;;7.90;99.90;;;;;;4980812;28;20045;-81
2022/04/21 00:07:22;;;;;;;11.67;7.17;;;7.80;99.90;;;;;;4993943;28;20543;-81
2022/04/21 00:09:49;;;;;;;11.23;7.37;;;7.90;99.90;;;;;;4974142;28;20041;-81
2022/04/21 00:12:15;;;;;;;9.40;7.07;;;7.90;99.90;;;;;;4995638;28;20041;-81
2022/04/21 00:14:41;;;;;;;10.63;7.07;;;7.80;99.90;;;;;;4980968;28;20052;-81
2022/04/21 00:17:10;;;;;;;9.70;6.57;;;7.80;99.90;;;;;;4981088;28;20125;-81
2022/04/21 00:19:36;;;;;;;9.90;6.90;;;7.80;99.90;;;;;;4980489;28;20077;-81
2022/04/21 00:24:47;;;;;;;10.60;7.10;;;7.70;99.90;;;;;;4992116;28;20076;-81
2022/04/21 00:27:13;;;;;;;12.77;7.53;;;7.70;99.90;;;;;;4978921;28;20077;-81
2022/04/21 00:29:39;;;;;;;12.73;7.40;;;7.70;99.90;;;;;;4994346;28;20092;-81
2022/04/21 00:32:05;;;;;;;12.10;7.17;;;7.70;99.90;;;;;;4992764;28;20046;-81
2022/04/21 00:34:34;;;;;;;10.03;7.47;;;7.60;99.90;;;;;;4982317;28;20516;-81
2022/04/21 00:37:00;;;;;;;8.93;6.67;;;7.60;99.90;;;;;;4980994;28;20081;-81
2022/04/21 00:39:27;;;;;;;11.47;7.50;;;7.50;99.90;;;;;;4970126;28;20069;-81
2022/04/21 00:41:59;;;;;;;10.20;6.70;;;7.40;99.90;;;;;;4995150;28;20069;-81
2022/04/21 00:44:25;;;;;;;11.43;7.82;;;7.40;99.90;;;;;;4986049;28;20084;-81
2022/04/21 00:46:53;;;;;;;10.97;7.00;;;7.30;99.90;;;;;;5010312;28;20034;-81
2022/04/21 00:49:21;;;;;;;9.37;6.83;;;7.40;99.90;;;;;;4999807;28;20045;-81
2022/04/21 00:51:51;;;;;;;11.17;7.67;;;7.30;99.90;;;;;;5014634;28;20100;-81
2022/04/21 00:54:17;;;;;;;10.07;7.47;;;7.30;99.90;;;;;;5009781;28;20045;-81
2022/04/21 00:56:44;;;;;;;13.03;8.13;;;7.30;99.90;;;;;;4978908;28;20489;-80
2022/04/21 00:59:10;;;;;;;13.83;8.30;;;7.30;99.90;;;;;;4980484;28;20481;-81
2022/04/21 01:04:22;;;;;;;11.70;8.10;;;7.30;99.90;;;;;;4994562;28;20125;-81
2022/04/21 01:06:53;;;;;;;12.30;7.77;;;7.30;99.90;;;;;;4981670;28;20501;-81
2022/04/21 01:09:19;;;;;;;13.77;8.23;;;7.20;99.90;;;;;;5019443;28;20121;-81
2022/04/21 01:11:49;;;;;;;14.07;8.83;;;7.10;99.90;;;;;;4983052;28;20140;-80
2022/04/21 01:14:15;;;;;;;10.13;7.63;;;7.00;99.90;;;;;;4985905;28;20037;-80
2022/04/21 01:16:41;;;;;;;14.03;8.43;;;6.90;99.90;;;;;;4986787;28;20037;-80
2022/04/21 01:19:07;;;;;;;12.33;8.00;;;6.90;99.90;;;;;;5000040;28;20037;-80
2022/04/21 01:21:33;;;;;;;12.67;7.53;;;6.80;99.90;;;;;;5004114;28;20400;-80
2022/04/21 01:23:59;;;;;;;11.57;7.93;;;6.80;99.90;;;;;;4990105;28;20033;-80
2022/04/21 01:26:35;;;;;;;11.93;8.03;;;6.80;99.90;;;;;;5014019;28;20042;-80
2022/04/21 01:29:07;;;;;;;11.53;7.60;;;6.60;99.90;;;;;;4977777;28;20072;-79
2022/04/21 01:31:33;;;;;;;12.53;7.73;;;6.50;99.90;;;;;;4981096;28;20078;-80
2022/04/21 01:33:59;;;;;;;12.60;7.93;;;6.50;99.90;;;;;;4994855;28;20128;-80
2022/04/21 01:36:25;;;;;;;13.30;8.63;;;6.50;99.90;;;;;;4975958;28;20473;-81
2022/04/21 01:41:35;;;;;;;13.57;9.20;;;6.40;99.90;;;;;;4993879;28;20034;-80
2022/04/21 01:44:02;;;;;;;14.50;8.90;;;6.40;99.90;;;;;;4998322;28;20069;-80
2022/04/21 01:46:27;;;;;;;17.10;9.87;;;6.50;99.90;;;;;;4979333;28;20153;-81
2022/04/21 01:48:53;;;;;;;13.90;9.80;;;6.50;99.90;;;;;;4995915;28;20109;-80
2022/04/21 01:51:19;;;;;;;18.70;10.33;;;6.50;99.90;;;;;;4982763;28;20418;-80
2022/04/21 01:53:45;;;;;;;17.27;10.50;;;6.50;99.90;;;;;;4961597;28;20125;-80
2022/04/21 01:56:11;;;;;;;15.37;9.87;;;6.60;99.90;;;;;;4998098;28;20053;-80
2022/04/21 01:58:36;;;;;;;14.00;9.23;;;6.70;99.90;;;;;;4980124;28;20049;-80
2022/04/21 02:01:02;;;;;;;14.53;9.83;;;6.70;99.90;;;;;;4978067;28;20042;-80
2022/04/21 02:03:30;;;;;;;17.33;9.60;;;6.70;99.90;;;;;;4978215;28;20034;-80
2022/04/21 02:05:56;;;;;;;13.73;9.93;;;6.80;99.90;;;;;;4997423;28;20037;-80
2022/04/21 02:08:22;;;;;;;15.17;9.20;;;6.80;99.90;;;;;;4979499;28;20104;-80
2022/04/21 02:10:48;;;;;;;15.23;9.70;;;6.80;99.90;;;;;;4963025;28;20037;-80
2022/04/21 02:13:13;;;;;;;12.70;9.23;;;6.90;99.90;;;;;;4979665;28;20038;-80
2022/04/21 02:15:39;;;;;;;15.13;9.80;;;6.90;99.90;;;;;;4979643;28;20064;-80
2022/04/21 02:18:05;;;;;;;14.83;9.97;;;6.90;99.90;;;;;;4958136;28;20517;-81
2022/04/21 02:20:31;;;;;;;15.07;10.10;;;6.90;99.90;;;;;;5012675;28;20034;-80
2022/04/21 02:22:56;;;;;;;17.13;9.60;;;6.90;99.90;;;;;;4962585;28;20108;-80
2022/04/21 02:25:22;;;;;;;12.57;9.23;;;6.90;99.90;;;;;;5002471;28;20092;-81
2022/04/21 02:27:49;;;;;;;15.73;9.90;;;6.90;99.90;;;;;;4995049;28;20049;-81
2022/04/21 02:30:18;;;;;;;14.30;9.90;;;6.90;99.90;;;;;;4995180;28;20056;-80
2022/04/21 02:32:44;;;;;;;14.93;9.27;;;6.90;99.90;;;;;;5016725;28;20044;-80
2022/04/21 02:35:11;;;;;;;14.10;9.07;;;6.80;99.90;;;;;;4978915;28;20095;-81
2022/04/21 02:37:45;;;;;;;13.80;10.23;;;6.80;99.90;;;;;;4975936;28;20073;-81
2022/04/21 02:40:12;;;;;;;14.60;10.00;;;6.80;99.90;;;;;;4977839;28;20038;-81
2022/04/21 02:42:38;;;;;;;16.20;10.27;;;6.70;99.90;;;;;;5000988;28;20034;-81
2022/04/21 02:45:06;;;;;;;14.17;9.50;;;6.70;99.90;;;;;;4990909;28;20050;-81
2022/04/21 02:47:34;;;;;;;15.67;10.70;;;6.70;99.90;;;;;;4977862;28;20132;-81
2022/04/21 02:50:00;;;;;;;14.50;9.67;;;6.60;99.90;;;;;;4993033;28;20251;-80
2022/04/21 02:52:26;;;;;;;15.70;9.90;;;6.60;99.90;;;;;;4974549;28;20049;-80
2022/04/21 02:57:44;;;;;;;14.40;10.07;;;6.60;99.90;;;;;;4956983;28;20041;-80
2022/04/21 03:00:10;;;;;;;13.27;10.27;;;6.60;99.90;;;;;;4973244;28;20073;-81
2022/04/21 03:02:36;;;;;;;15.33;10.57;;;6.60;99.90;;;;;;4993966;28;20629;-80
2022/04/21 03:05:02;;;;;;;15.80;10.30;;;6.60;99.90;;;;;;4969516;28;20038;-81
2022/04/21 03:07:28;;;;;;;18.77;9.93;;;6.60;99.90;;;;;;5007411;28;20392;-81
2022/04/21 03:09:53;;;;;;;17.03;10.70;;;6.60;99.90;;;;;;4963453;28;20453;-80
2022/04/21 03:12:23;;;;;;;17.63;10.83;;;6.50;99.90;;;;;;4966655;28;20529;-80
2022/04/21 03:14:51;;;;;;;13.80;9.93;;;6.50;99.90;;;;;;4992013;28;20045;-81
2022/04/21 03:17:17;;;;;;;14.07;9.90;;;6.50;99.90;;;;;;4975514;28;20038;-80
2022/04/21 03:19:43;;;;;;;17.17;11.10;;;6.50;99.90;;;;;;4997683;28;20520;-80
2022/04/21 03:25:02;;;;;;;17.10;10.47;;;6.50;99.90;;;;;;4992758;28;20042;-80
2022/04/21 03:27:29;;;;;;;16.17;10.03;;;6.40;99.90;;;;;;4976002;28;20053;-80
2022/04/21 03:29:59;;;;;;;20.10;9.70;;;6.50;99.90;;;;;;4957955;28;20054;-80
2022/04/21 03:32:26;;;;;;;15.60;10.53;;;6.50;99.90;;;;;;4992250;28;20042;-81
2022/04/21 03:34:53;;;;;;;16.23;10.77;;;6.40;99.90;;;;;;4982924;28;20044;-80
2022/04/21 03:37:20;;;;;;;15.67;10.50;;;6.40;99.90;;;;;;5001943;28;20069;-81
2022/04/21 03:39:46;;;;;;;16.63;10.90;;;6.40;99.90;;;;;;4976966;28;20042;-81
2022/04/21 03:42:24;;;;;;;18.00;10.57;;;6.40;99.90;;;;;;4977798;28;20099;-79
2022/04/21 03:44:50;;;;;;;15.53;10.33;;;6.40;99.90;;;;;;4978034;28;20121;-80
2022/04/21 03:47:16;;;;;;;19.50;11.03;;;6.40;99.90;;;;;;4983261;28;20092;-81
2022/04/21 03:49:42;;;;;;;14.93;10.63;;;6.30;99.90;;;;;;4973399;28;20072;-80
2022/04/21 03:52:10;;;;;;;15.37;11.27;;;6.40;99.90;;;;;;4987112;28;20514;-80
2022/04/21 03:54:36;;;;;;;16.77;10.30;;;6.30;99.90;;;;;;4986830;28;20103;-80
2022/04/21 03:57:02;;;;;;;16.10;10.60;;;6.30;99.90;;;;;;4996183;28;20053;-81
2022/04/21 03:59:28;;;;;;;15.87;10.40;;;6.30;99.90;;;;;;4973846;28;20119;-80
2022/04/21 04:01:56;;;;;;;17.17;10.37;;;6.30;99.90;;;;;;4988870;28;20074;-80
2022/04/21 04:04:22;;;;;;;15.47;10.87;;;6.30;99.90;;;;;;4974050;28;20033;-81
2022/04/21 04:12:16;;;;;;;18.23;10.30;;;6.30;99.90;;;;;;4970255;28;20190;-80
2022/04/21 04:14:42;;;;;;;15.63;10.60;;;6.30;99.90;;;;;;5000485;28;20117;-81
2022/04/21 04:17:08;;;;;;;16.77;11.27;;;6.30;99.90;;;;;;4980420;28;20069;-80
2022/04/21 04:19:35;;;;;;;13.83;10.37;;;6.30;99.90;;;;;;4992258;28;20457;-80
2022/04/21 04:22:04;;;;;;;17.17;10.43;;;6.30;99.90;;;;;;5024759;28;20449;-80
2022/04/21 04:24:30;;;;;;;17.37;11.17;;;6.30;99.90;;;;;;4977881;28;20048;-80
2022/04/21 04:26:56;;;;;;;16.87;10.40;;;6.20;99.90;;;;;;4976049;28;20038;-80
2022/04/21 04:29:25;;;;;;;14.47;10.13;;;6.20;99.90;;;;;;4979499;28;20038;-80
2022/04/21 04:31:52;;;;;;;17.97;11.27;;;6.20;99.90;;;;;;4996621;28;20406;-80
2022/04/21 04:34:21;;;;;;;15.30;10.93;;;6.30;99.90;;;;;;5002202;28;20049;-80
2022/04/21 04:36:47;;;;;;;16.03;10.27;;;6.20;99.90;;;;;;4994677;28;20080;-81
2022/04/21 04:39:14;;;;;;;17.87;10.43;;;6.20;99.90;;;;;;4994526;28;20034;-80
2022/04/21 04:44:25;;;;;;;18.67;10.60;;;6.20;99.90;;;;;;4968822;28;20070;-79
2022/04/21 04:46:50;;;;;;;16.00;10.50;;;6.20;99.90;;;;;;4940788;28;20039;-80
2022/04/21 04:49:16;;;;;;;17.13;10.23;;;6.10;99.90;;;;;;4968075;28;20031;-80
2022/04/21 04:51:42;;;;;;;15.20;10.17;;;6.20;99.90;;;;;;4970451;28;20391;-79
2022/04/21 04:54:10;;;;;;;17.67;9.90;;;6.20;99.90;;;;;;4964298;28;20050;-80
2022/04/21 04:56:37;;;;;;;17.93;10.67;;;6.20;99.90;;;;;;4952834;28;20110;-80
2022/04/21 04:59:03;;;;;;;18.47;11.07;;;6.20;99.90;;;;;;4962293;28;20047;-80
2022/04/21 05:01:41;;;;;;;18.33;10.53;;;6.30;99.90;;;;;;4967422;28;20130;-80
2022/04/21 05:04:09;;;;;;;16.17;9.90;;;6.30;99.90;;;;;;4971454;28;20046;-80
2022/04/21 05:06:40;;;;;;;15.03;10.30;;;6.30;99.90;;;;;;4970255;28;20449;-80
2022/04/21 05:09:09;;;;;;;15.43;10.33;;;6.30;99.90;;;;;;4953697;28;20106;-80
2022/04/21 05:11:35;;;;;;;14.77;10.27;;;6.30;99.90;;;;;;4963437;28;20054;-80
2022/04/21 05:14:02;;;;;;;16.40;9.73;;;6.40;99.90;;;;;;4953190;28;20043;-80
2022/04/21 05:16:28;;;;;;;16.07;10.50;;;6.40;99.90;;;;;;4954579;28;20038;-79
2022/04/21 05:18:55;;;;;;;13.63;9.87;;;6.40;99.90;;;;;;4936106;28;20031;-80
2022/04/21 05:21:21;;;;;;;15.40;9.27;;;6.50;99.90;;;;;;4965711;28;20042;-80
2022/04/21 05:23:48;;;;;;;15.47;9.27;;;6.50;99.90;;;;;;4943661;29;20050;-81
2022/04/21 05:26:18;;;;;;;15.57;10.07;;;6.60;99.90;;;;;;4969988;28;20054;-80
2022/04/21 05:28:44;;;;;;;13.07;9.07;;;6.60;99.90;;;;;;4951157;28;20045;-80
2022/04/21 05:31:11;;;;;;;15.10;9.80;;;6.60;99.90;;;;;;4971535;28;20057;-81
2022/04/21 05:33:38;;;;;;;18.73;9.20;;;6.70;99.90;;;;;;4969465;28;20121;-81
2022/04/21 05:36:05;;;;;;;12.27;8.80;;;6.80;99.90;;;;;;4965716;28;20046;-79
2022/04/21 05:38:31;;;;;;;15.67;9.40;;;6.80;99.90;;;;;;4952225;28;20100;-78
2022/04/21 05:40:57;;;;;;;13.97;9.40;;;6.80;99.90;;;;;;4949651;28;20598;-78
2022/04/21 05:43:32;;;;;;;13.60;9.23;;;6.90;99.90;;;;;;4972260;28;20058;-79
2022/04/21 05:45:58;;;;;;;15.63;9.63;;;6.90;99.90;;;;;;4985674;28;20034;-78
2022/04/21 05:48:24;;;;;;;12.27;8.53;;;7.00;99.90;;;;;;4956882;28;20470;-78
2022/04/21 05:50:51;;;;;;;15.10;9.20;;;7.00;99.90;;;;;;4988940;28;20042;-78
2022/04/21 05:53:26;;;;;;;14.93;8.67;;;7.10;99.90;;;;;;4985368;28;20047;-78
2022/04/21 05:55:53;;;;;;;14.60;9.30;;;7.20;99.90;;;;;;4989265;28;20042;-78
2022/04/21 05:58:20;;;;;;;11.30;8.60;;;7.20;99.90;;;;;;4986331;28;20513;-78
2022/04/21 06:00:46;;;;;;;13.23;8.67;;;7.30;99.90;;;;;;4993778;28;20050;-78
2022/04/21 06:03:12;;;;;;;13.77;8.47;;;7.40;99.90;;;;;;4989627;28;20041;-78
2022/04/21 06:05:39;;;;;;;12.47;8.00;;;7.50;99.90;;;;;;5003525;28;20034;-77
2022/04/21 06:08:06;;;;;;;16.83;7.97;;;7.60;99.90;;;;;;4970181;28;20048;-78
2022/04/21 06:10:33;;;;;;;11.20;6.47;;;7.70;99.90;;;;;;4986714;28;20042;-78
2022/04/21 06:13:01;;;;;;;12.83;7.53;;;7.80;99.90;;;;;;5008334;28;20197;-78
2022/04/21 06:15:27;;;;;;;11.07;7.53;;;8.00;99.90;;;;;;5004671;28;20078;-77
2022/04/21 06:17:53;;;;;;;11.77;6.90;;;8.10;99.90;;;;;;4989788;28;20038;-78
2022/04/21 06:20:19;;;;;;;9.00;6.10;;;8.20;99.90;;;;;;4973626;28;20703;-78
2022/04/21 06:22:48;;;;;;;8.60;6.50;;;8.30;99.90;;;;;;4974541;28;20042;-78
2022/04/21 06:25:14;;;;;;;11.50;6.00;;;8.50;99.90;;;;;;4990553;28;20572;-77
2022/04/21 06:27:40;;;;;;;9.60;6.17;;;8.60;99.90;;;;;;4993090;28;20042;-78
2022/04/21 06:30:06;;;;;;;14.20;6.60;;;8.70;99.90;;;;;;4993198;28;20053;-77
2022/04/21 06:32:32;;;;;;;7.03;5.70;;;8.80;99.90;;;;;;4981870;28;20045;-78
2022/04/21 06:34:58;;;;;;;8.57;6.10;;;8.90;99.90;;;;;;4992444;28;20046;-77
2022/04/21 06:37:24;;;;;;;9.80;5.50;;;9.00;99.90;;;;;;4979395;28;20095;-77
2022/04/21 06:39:49;;;;;;;10.13;5.63;;;9.20;99.90;;;;;;4978389;28;20053;-77
2022/04/21 06:42:15;;;;;;;6.20;4.90;;;9.30;99.90;;;;;;4986044;28;20506;-78
2022/04/21 06:50:10;;;;;;;10.80;4.70;;;9.60;99.90;;;;;;5009154;28;20205;-78
2022/04/21 06:52:37;;;;;;;7.13;5.13;;;9.80;99.90;;;;;;4980763;28;20132;-78
2022/04/21 06:55:05;;;;;;;7.30;4.60;;;9.90;99.90;;;;;;4993233;28;20053;-78
2022/04/21 06:57:31;;;;;;;7.30;4.60;;;10.00;99.90;;;;;;4977002;28;20045;-78
2022/04/21 06:59:56;;;;;;;9.77;4.93;;;10.20;99.90;;;;;;5009484;28;20046;-78
2022/04/21 07:02:27;;;;;;;5.83;4.87;;;10.20;99.90;;;;;;4985767;28;20078;-77
2022/04/21 07:04:53;;;;;;;5.33;4.47;;;10.30;99.90;;;;;;4989757;28;20039;-78
2022/04/21 07:07:19;;;;;;;6.97;4.40;;;10.40;99.90;;;;;;4985568;28;20095;-78
2022/04/21 07:09:44;;;;;;;8.17;4.87;;;10.40;99.90;;;;;;4993716;28;20057;-77
2022/04/21 07:12:10;;;;;;;7.43;4.70;;;10.50;99.90;;;;;;4972633;28;20068;-77
2022/04/21 07:14:36;;;;;;;5.43;4.63;;;10.50;99.90;;;;;;4971077;28;20046;-78
2022/04/21 07:17:02;;;;;;;5.50;4.70;;;10.60;99.90;;;;;;4969291;28;20049;-77
2022/04/21 07:19:27;;;;;;;8.67;4.17;;;10.60;99.90;;;;;;4982945;28;20132;-77
2022/04/21 07:21:53;;;;;;;13.23;5.90;;;10.70;99.90;;;;;;4972800;28;20164;-78
2022/04/21 07:24:19;;;;;;;7.90;4.57;;;10.80;99.90;;;;;;4995139;28;20057;-78
2022/04/21 07:26:44;;;;;;;8.80;4.43;;;10.90;99.90;;;;;;4972276;28;20402;-78
2022/04/21 07:29:10;;;;;;;8.30;5.10;;;11.00;99.90;;;;;;4990129;28;20126;-78
2022/04/21 07:31:37;;;;;;;6.53;4.40;;;11.10;99.90;;;;;;4986450;28;20039;-79
2022/04/21 07:34:03;;;;;;;7.97;4.37;;;11.10;99.90;;;;;;4982624;28;20086;-78
2022/04/21 07:36:29;;;;;;;6.57;4.70;;;11.20;99.90;;;;;;4958008;28;20069;-79
2022/04/21 07:38:55;;;;;;;5.43;4.00;;;11.30;99.90;;;;;;4956615;28;20153;-79
2022/04/21 07:41:21;;;;;;;5.30;3.97;;;11.40;99.90;;;;;;4983213;28;20116;-78
2022/04/21 07:43:46;;;;;;;5.37;4.40;;;11.50;99.90;;;;;;4972536;28;20046;-79
2022/04/21 07:46:14;;;;;;;7.03;4.83;;;11.60;99.90;;;;;;4968234;28;20039;-78
2022/04/21 07:51:24;;;;;;;6.97;4.23;;;11.70;99.90;;;;;;4972915;28;20425;-77
2022/04/21 07:53:50;;;;;;;7.40;4.07;;;11.80;99.90;;;;;;4997942;28;20053;-78
2022/04/21 07:56:15;;;;;;;4.20;3.80;;;12.00;99.90;;;;;;4988152;28;20586;-79
2022/04/21 07:58:41;;;;;;;6.47;4.13;;;12.20;99.90;;;;;;4973475;28;20038;-78
2022/04/21 08:01:07;;;;;;;5.00;4.27;;;12.20;99.90;;;;;;4974758;28;20084;-79
2022/04/21 08:03:37;;;;;;;5.43;4.60;;;12.30;99.90;;;;;;4986646;28;20041;-78
2022/04/21 08:06:04;;;;;;;4.63;4.00;;;12.40;99.90;;;;;;4973202;28;20047;-79
2022/04/21 08:08:30;;;;;;;6.70;4.23;;;12.50;99.90;;;;;;4972958;28;20153;-79
2022/04/21 08:10:56;;;;;;;5.77;4.23;;;12.60;99.90;;;;;;4982171;28;20055;-79
2022/04/21 08:13:23;;;;;;;5.33;4.00;;;12.70;99.90;;;;;;4987808;28;20588;-79
2022/04/21 08:15:49;;;;;;;6.57;3.40;;;12.90;99.90;;;;;;4976020;28;20046;-78
2022/04/21 08:18:15;;;;;;;4.80;3.57;;;13.00;99.90;;;;;;4980438;28;20053;-79
2022/04/21 08:20:41;;;;;;;4.87;3.60;;;13.00;98.30;;;;;;5007429;28;20094;-78
2022/04/21 08:23:06;;;;;;;6.20;3.80;;;13.10;98.30;;;;;;4983128;28;20578;-78
2022/04/21 08:33:45;;;;;;;6.20;3.30;;;13.50;93.20;;;;;;4974338;28;20137;-79
2022/04/21 08:36:10;;;;;;;5.13;3.30;;;13.60;93.50;;;;;;4981609;28;20121;-78
2022/04/21 08:38:36;;;;;;;5.50;3.83;;;13.80;92.00;;;;;;4990510;28;20050;-78
2022/04/21 08:41:07;;;;;;;5.70;4.30;;;13.80;91.70;;;;;;4975187;28;20049;-79
2022/04/21 08:43:34;;;;;;;5.88;3.80;;;13.90;90.50;;;;;;5019329;28;20092;-78
2022/04/21 08:46:01;;;;;;;8.07;3.67;;;14.00;91.00;;;;;;4993070;28;20052;-79
2022/04/21 08:48:27;;;;;;;5.07;4.00;;;14.20;91.50;;;;;;5026075;28;20104;-78
2022/04/21 08:50:53;;;;;;;5.40;3.70;;;14.20;90.10;;;;;;4989887;28;20061;-79
2022/04/21 08:53:21;;;;;;;5.60;3.53;;;14.20;87.90;;;;;;4992725;28;20446;-78
2022/04/21 08:55:51;;;;;;;5.23;3.70;;;14.20;87.00;;;;;;5002332;28;20042;-78
2022/04/21 08:58:32;;;;;;;5.87;3.57;;;14.20;83.40;;;;;;5009398;28;20049;-78
2022/04/21 09:00:58;;;;;;;7.33;3.73;;;14.10;82.20;;;;;;4985725;28;20047;-78
2022/04/21 09:03:24;;;;;;;7.93;3.73;;;14.20;84.40;;;;;;4997132;28;20042;-78
2022/04/21 09:05:50;;;;;;;4.67;4.17;;;14.20;82.20;;;;;;4998242;28;20042;-78
2022/04/21 09:08:24;;;;;;;7.60;3.33;;;14.30;82.50;;;;;;5011292;28;20516;-79
2022/04/21 09:11:04;;;;;;;6.97;3.70;;;14.50;79.30;;;;;;4985986;28;20069;-79
2022/04/21 09:13:34;;;;;;;5.50;3.50;;;14.50;74.70;;;;;;4998914;28;20046;-79
2022/04/21 09:16:02;;;;;;;6.37;3.50;;;14.60;77.20;;;;;;4979766;28;20053;-79
2022/04/21 09:18:45;;;;;;;6.43;3.00;;;14.60;78.10;;;;;;4990960;28;20044;-79
2022/04/21 09:21:15;;;;;;;4.23;3.60;;;14.60;75.90;;;;;;4990805;28;20604;-78
2022/04/21 09:23:43;;;;;;;4.37;3.90;;;14.60;74.20;;;;;;4968975;28;20041;-79
2022/04/21 09:26:14;;;;;;;4.27;3.30;;;14.70;74.30;;;;;;4988146;28;20347;-80
2022/04/21 09:28:40;;;;;;;5.00;3.05;;;14.80;75.30;;;;;;5014369;28;20041;-80
2022/04/21 09:31:08;;;;;;;6.07;3.83;;;15.00;76.10;;;;;;5021845;28;20492;-79
2022/04/21 09:33:35;;;;;;;4.03;3.40;;;15.10;72.70;;;;;;4971450;28;20053;-79
2022/04/21 09:36:03;;;;;;;6.17;3.70;;;15.10;71.50;;;;;;4986244;28;20078;-80
2022/04/21 09:38:29;;;;;;;4.77;3.67;;;15.20;72.00;;;;;;5012737;28;20117;-80
2022/04/21 09:40:55;;;;;;;5.77;3.37;;;15.30;73.40;;;;;;4953964;28;20125;-80
2022/04/21 09:43:28;;;;;;;5.30;3.73;;;15.40;72.60;;;;;;4983377;28;20038;-80
2022/04/21 09:46:09;;;;;;;4.37;3.37;;;15.40;69.70;;;;;;4978872;28;20046;-79
2022/04/21 09:48:36;;;;;;;4.23;3.83;;;15.50;71.40;;;;;;4985404;28;20042;-80
2022/04/21 09:51:13;;;;;;;8.53;4.00;;;15.40;68.10;;;;;;4988972;28;20053;-79
2022/04/21 09:53:59;;;;;;;7.03;3.80;;;15.40;69.10;;;;;;4999459;28;20653;-80
2022/04/21 09:56:40;;;;;;;3.63;3.30;;;15.40;67.60;;;;;;4977593;28;20045;-79
2022/04/21 09:59:13;;;;;;;5.43;3.87;;;15.30;67.80;;;;;;4991964;28;20394;-79
2022/04/21 10:01:42;;;;;;;4.70;3.40;;;15.40;66.60;;;;;;5019891;28;20037;-80
2022/04/21 10:04:20;;;;;;;5.53;3.60;;;15.20;66.30;;;;;;4995964;28;20495;-79
2022/04/21 10:06:47;;;;;;;4.20;3.77;;;15.40;66.70;;;;;;4994674;28;20045;-80
2022/04/21 10:09:15;;;;;;;4.47;3.73;;;15.70;68.10;;;;;;4979525;28;20042;-80
2022/04/21 10:11:42;;;;;;;5.47;4.00;;;15.90;69.40;;;;;;4978034;28;20052;-80
2022/04/21 10:14:12;;;;;;;5.07;3.47;;;16.00;67.90;;;;;;5028749;28;20120;-79
2022/04/21 10:16:42;;;;;;;4.93;3.67;;;16.10;67.50;;;;;;4974109;28;20521;-79
2022/04/21 10:19:09;;;;;;;6.47;3.90;;;16.00;65.30;;;;;;4991417;28;20046;-79
2022/04/21 10:21:38;;;;;;;7.22;3.80;;;16.00;65.40;;;;;;5014737;28;20151;-79
2022/04/21 10:24:05;;;;;;;5.28;3.53;;;15.90;64.10;;;;;;4997666;28;20081;-79
2022/04/21 10:26:35;;;;;;;4.30;3.90;;;15.80;64.50;;;;;;4987669;28;20048;-80
2022/04/21 10:29:14;;;;;;;5.47;4.03;;;15.80;64.70;;;;;;4969236;28;20046;-79
2022/04/21 10:31:49;;;;;;;5.93;3.97;;;16.00;65.70;;;;;;4978751;28;20046;-79
2022/04/21 10:34:40;;;;;;;4.93;3.53;;;16.00;63.10;;;;;;4990313;28;20049;-79
2022/04/21 10:37:18;;;;;;;6.43;3.88;;;16.00;61.10;;;;;;5006218;28;20049;-79
2022/04/21 10:39:59;;;;;;;4.50;3.40;;;15.90;63.00;;;;;;4980033;28;20037;-81
2022/04/21 10:42:24;;;;;;;7.53;3.42;;;16.10;62.70;;;;;;5005232;28;20369;-80
2022/04/21 10:44:52;;;;;;;5.32;3.67;;;16.30;64.40;;;;;;4987217;28;20046;-80
2022/04/21 10:47:32;;;;;;;5.38;3.55;;;16.50;63.70;;;;;;4998042;28;20045;-80
2022/04/21 10:50:19;;;;;;;5.47;3.90;;;16.50;59.40;;;;;;4979293;28;20052;-80
2022/04/21 10:58:35;;;;;;;4.72;4.05;;;16.40;60.80;;;;;;4988627;28;20172;-79
2022/04/21 11:01:25;;;;;;;6.20;3.93;;;16.40;60.30;;;;;;5009621;28;20037;-79
2022/04/21 11:04:18;;;;;;;5.53;3.75;;;16.10;60.40;;;;;;4975730;28;20302;-79
2022/04/21 11:06:51;;;;;;;4.97;3.80;;;16.00;60.60;;;;;;4971062;28;20047;-80
2022/04/21 11:09:36;;;;;;;6.13;3.83;;;16.10;63.10;;;;;;4986777;28;20049;-79
2022/04/21 11:12:04;;;;;;;5.47;3.97;;;16.40;61.40;;;;;;4997569;28;20129;-79
2022/04/21 11:14:37;;;;;;;5.75;3.88;;;16.50;61.00;;;;;;4992218;28;20045;-79
2022/04/21 11:17:06;;;;;;;5.10;4.28;;;16.50;60.20;;;;;;4977497;28;20042;-80
2022/04/21 11:19:44;;;;;;;7.25;3.78;;;16.50;60.70;;;;;;4990674;28;20129;-78
2022/04/21 11:22:12;;;;;;;6.53;4.22;;;16.70;61.10;;;;;;5011905;28;20046;-81
2022/04/21 11:24:56;;;;;;;5.47;3.67;;;17.10;60.40;;;;;;5008712;28;20045;-80
2022/04/21 11:27:23;;;;;;;5.18;4.30;;;17.30;58.80;;;;;;4997583;28;20073;-79
2022/04/21 11:29:49;;;;;;;4.93;3.92;;;17.30;59.90;;;;;;4992911;28;20113;-80
2022/04/21 11:32:16;;;;;;;5.00;3.67;;;17.30;59.40;;;;;;4999788;28;20042;-80
2022/04/21 11:34:56;;;;;;;5.20;3.88;;;17.30;58.90;;;;;;5008126;28;20041;-80
2022/04/21 11:37:21;;;;;;;6.30;4.15;;;17.40;60.00;;;;;;4966620;28;20050;-80
2022/04/21 11:39:47;;;;;;;4.45;4.05;;;17.30;58.70;;;;;;4978497;28;20096;-79
2022/04/21 11:42:27;;;;;;;5.10;4.50;;;16.90;59.10;;;;;;5011986;28;20045;-80
2022/04/21 11:44:54;;;;;;;6.60;3.88;;;16.50;58.80;;;;;;5011315;28;20049;-80
2022/04/21 11:47:21;;;;;;;6.47;4.28;;;16.50;60.90;;;;;;4989700;28;20045;-80
2022/04/21 11:49:59;;;;;;;7.85;5.13;;;16.60;61.00;;;;;;4984502;28;20041;-81
2022/04/21 11:52:27;;;;;;;6.28;4.63;;;16.60;60.50;;;;;;4965369;28;20046;-80
2022/04/21 11:55:12;;;;;;;5.50;4.70;;;16.60;61.50;;;;;;5026471;28;20112;-80
2022/04/21 11:57:45;;;;;;;5.30;4.30;;;16.90;62.70;;;;;;4979119;28;20462;-80
2022/04/21 12:00:12;;;;;;;9.50;4.85;;;17.20;61.50;;;;;;4997249;28;20050;-80
2022/04/21 12:08:07;;;;;;;7.35;4.85;;;17.60;59.50;;;;;;4995713;28;20045;-79
2022/04/21 12:10:35;;;;;;;7.35;5.07;;;17.80;59.10;;;;;;4999818;28;20366;-79
2022/04/21 12:13:02;;;;;;;9.43;5.05;;;18.00;58.60;;;;;;4973714;28;20116;-81
2022/04/21 12:15:29;;;;;;;5.85;4.50;;;18.00;58.60;;;;;;5023875;28;20382;-81
2022/04/21 12:17:59;;;;;;;5.60;4.57;;;18.00;59.70;;;;;;4997643;28;20499;-80
2022/04/21 12:20:25;;;;;;;7.53;5.05;;;17.90;58.20;;;;;;4969364;28;20046;-80
2022/04/21 12:22:51;;;;;;;5.85;4.57;;;17.70;58.10;;;;;;4990010;28;20045;-80
2022/04/21 12:25:17;;;;;;;8.52;4.85;;;17.80;59.10;;;;;;5029113;28;20042;-80
2022/04/21 12:27:44;;;;;;;4.95;4.50;;;17.90;58.70;;;;;;4981872;28;20124;-80
2022/04/21 12:30:15;;;;;;;5.85;5.28;;;18.10;59.20;;;;;;4986232;28;20426;-80
2022/04/21 12:32:49;;;;;;;6.37;4.53;;;18.10;58.00;;;;;;4994796;28;20042;-80
2022/04/21 12:35:15;;;;;;;5.90;4.60;;;18.20;57.40;;;;;;5011360;28;21183;-80
2022/04/21 12:37:43;;;;;;;7.90;4.82;;;18.00;58.20;;;;;;4988902;28;20085;-81
2022/04/21 12:40:14;;;;;;;7.15;5.32;;;18.20;58.60;;;;;;4984922;28;20038;-79
2022/04/21 12:42:40;;;;;;;7.03;5.30;;;17.90;57.20;;;;;;5013175;28;20508;-80
2022/04/21 12:45:10;;;;;;;5.78;4.68;;;17.70;57.60;;;;;;4993862;28;20505;-80
2022/04/21 12:47:43;;;;;;;5.65;4.55;;;17.60;57.60;;;;;;4990112;28;20049;-80
2022/04/21 12:50:16;;;;;;;7.38;4.80;;;17.50;58.30;;;;;;4992105;28;20034;-80
2022/04/21 12:52:57;;;;;;;8.88;5.28;;;17.40;58.70;;;;;;5026393;28;20038;-80
2022/04/21 12:55:25;;;;;;;6.20;5.22;;;17.50;58.20;;;;;;5025319;28;20048;-81
2022/04/21 12:58:11;;;;;;;7.68;5.47;;;17.60;58.70;;;;;;5017107;28;20124;-80
2022/04/21 13:00:40;;;;;;;11.02;5.47;;;17.70;59.10;;;;;;5000049;28;20429;-80
2022/04/21 13:03:10;;;;;;;7.15;5.10;;;17.80;58.60;;;;;;4998449;28;20525;-81
2022/04/21 13:05:49;;;;;;;6.18;5.53;;;17.80;58.60;;;;;;5019563;28;20050;-80
2022/04/21 13:08:15;;;;;;;5.68;4.88;;;17.80;58.30;;;;;;5022671;28;20136;-80
2022/04/21 13:10:41;;;;;;;4.95;4.40;;;17.80;57.50;;;;;;4969686;28;20069;-80
2022/04/21 13:13:07;;;;;;;8.20;4.72;;;17.90;57.80;;;;;;4992040;28;20092;-80
2022/04/21 13:15:32;;;;;;;9.88;5.15;;;18.10;57.50;;;;;;4986810;28;20545;-79
2022/04/21 13:17:58;;;;;;;7.20;5.35;;;18.10;57.10;;;;;;4991695;28;20038;-80
2022/04/21 13:23:08;;;;;;;7.63;5.68;;;18.10;56.80;;;;;;4982653;28;20048;-81
2022/04/21 13:25:34;;;;;;;6.10;5.10;;;18.10;58.10;;;;;;4995116;28;20041;-81
2022/04/21 13:27:59;;;;;;;9.70;5.32;;;18.00;58.40;;;;;;4991001;28;20050;-80
2022/04/21 13:30:25;;;;;;;7.00;5.38;;;17.90;58.90;;;;;;5011903;28;20080;-80
2022/04/21 13:35:35;;;;;;;7.10;4.97;;;17.20;58.90;;;;;;5015745;28;20045;-79
2022/04/21 13:38:01;;;;;;;9.50;5.00;;;17.10;59.80;;;;;;5005640;28;20048;-80
2022/04/21 13:40:26;;;;;;;7.72;4.93;;;17.30;60.10;;;;;;4978821;28;20457;-81
2022/04/21 13:42:52;;;;;;;5.95;4.88;;;17.60;59.40;;;;;;4993043;28;20042;-79
2022/04/21 13:45:18;;;;;;;6.45;5.40;;;17.80;58.00;;;;;;4977971;28;20061;-80